createdAt,value
2023-03-24T00:06:24.192Z,6
2023-03-24T00:16:32.121Z,9
2023-03-24T00:26:37.043Z,8
2023-03-24T00:36:43.175Z,8
2023-03-24T00:46:48.860Z,8
2023-03-24T00:56:55.651Z,8
2023-03-24T01:07:01.387Z,9
2023-03-24T01:17:08.683Z,7
2023-03-24T01:27:13.935Z,7
2023-03-24T01:37:21.693Z,9
2023-03-24T01:47:25.454Z,8
2023-03-24T01:57:30.657Z,9
2023-03-24T02:07:38.334Z,9
2023-03-24T02:17:43.903Z,9
2023-03-24T02:27:49.952Z,11
2023-03-24T02:37:54.822Z,7
2023-03-24T02:48:01.995Z,5
2023-03-24T02:58:07.688Z,5
2023-03-24T03:08:14.212Z,7
2023-03-24T03:18:20.926Z,7
2023-03-24T03:28:28.290Z,8
2023-03-24T03:38:34.661Z,12
2023-03-24T03:48:41.920Z,9
2023-03-24T03:58:46.379Z,8
2023-03-24T04:08:53.170Z,8
2023-03-24T04:18:59.661Z,7
2023-03-24T04:29:05.812Z,9
2023-03-24T04:39:12.161Z,8
2023-03-24T04:49:18.723Z,9
2023-03-24T04:59:24.125Z,9
2023-03-24T05:09:29.877Z,9
2023-03-24T05:19:37.029Z,9
2023-03-24T05:29:42.667Z,10
2023-03-24T05:39:49.412Z,10
2023-03-24T05:49:58.115Z,11
2023-03-24T06:00:04.702Z,10
2023-03-24T06:10:11.638Z,12
2023-03-24T06:20:17.705Z,10
2023-03-24T06:30:23.361Z,10
2023-03-24T06:40:28.649Z,9
2023-03-24T06:50:34.374Z,11
2023-03-24T07:00:41.083Z,18
2023-03-24T07:11:36.020Z,10
2023-03-24T07:21:42.654Z,12
2023-03-24T07:31:50.083Z,12
2023-03-24T07:41:57.163Z,9
2023-03-24T07:52:06.613Z,8
2023-03-24T08:02:08.667Z,7
2023-03-24T08:12:20.230Z,7
2023-03-24T08:22:20.752Z,10
2023-03-24T08:32:27.341Z,7
2023-03-24T08:42:31.957Z,7
2023-03-24T08:52:37.898Z,5
2023-03-24T09:02:44.433Z,10
2023-03-24T09:12:52.231Z,19
2023-03-24T09:22:57.314Z,13
2023-03-24T09:33:03.805Z,9
2023-03-24T09:43:10.382Z,8
2023-03-24T09:53:19.329Z,8
2023-03-24T10:03:28.259Z,7
2023-03-24T10:13:31.780Z,6
2023-03-24T10:23:37.656Z,6
2023-03-24T10:33:44.500Z,7
2023-03-24T10:43:55.951Z,6
2023-03-24T10:53:55.645Z,6
2023-03-24T11:04:01.767Z,8
2023-03-24T11:14:07.819Z,6
2023-03-24T11:24:13.734Z,6
2023-03-24T11:34:22.838Z,8
2023-03-24T11:44:25.747Z,8
2023-03-24T11:54:31.844Z,9
2023-03-24T12:04:38.440Z,7
2023-03-24T12:14:46.251Z,7
2023-03-24T12:24:53.917Z,5
2023-03-24T12:34:59.796Z,7
2023-03-24T12:45:07.389Z,6
2023-03-24T12:55:15.164Z,5
2023-03-24T13:05:20.694Z,4
2023-03-24T13:15:27.623Z,5
2023-03-24T13:25:35.458Z,5
2023-03-24T13:35:41.506Z,7
2023-03-24T13:45:49.632Z,6
2023-03-24T13:55:55.288Z,13
2023-03-24T14:06:02.741Z,9
2023-03-24T14:16:10.052Z,7
2023-03-24T14:26:18.739Z,5
2023-03-24T14:36:25.535Z,4
2023-03-24T14:46:30.918Z,6
2023-03-24T14:56:37.739Z,6
2023-03-24T15:06:43.379Z,7
2023-03-24T15:16:50.852Z,4
2023-03-24T15:26:57.344Z,3
2023-03-24T15:37:03.064Z,3
2023-03-24T15:47:09.600Z,2
2023-03-24T15:57:15.580Z,4
2023-03-24T16:07:24.520Z,3
2023-03-24T16:17:29.644Z,3
2023-03-24T16:27:35.816Z,3
2023-03-24T16:37:41.308Z,4
2023-03-24T16:47:49.019Z,2
2023-03-24T16:57:55.825Z,2
2023-03-24T17:08:00.888Z,4
2023-03-24T17:18:07.376Z,3
2023-03-24T17:28:14.576Z,7
2023-03-24T17:38:20.547Z,4
2023-03-24T17:48:26.556Z,4
2023-03-24T17:58:34.293Z,3
2023-03-24T18:08:41.076Z,4
2023-03-24T18:18:47.446Z,2
2023-03-24T18:28:53.959Z,2
2023-03-24T18:38:59.990Z,4
2023-03-24T18:49:06.742Z,2
2023-03-24T18:59:14.027Z,4
2023-03-24T19:09:20.194Z,4
2023-03-24T19:19:26.732Z,2
2023-03-24T19:29:31.264Z,9
2023-03-24T19:39:37.329Z,4
2023-03-24T19:49:44.772Z,5
2023-03-24T19:59:50.087Z,4
2023-03-24T20:09:57.345Z,3
2023-03-24T20:20:03.951Z,9
2023-03-24T20:30:08.778Z,4
2023-03-24T20:40:16.263Z,4
2023-03-24T20:50:22.619Z,3
2023-03-24T21:00:30.728Z,4
2023-03-24T21:10:36.181Z,6
2023-03-24T21:20:43.384Z,4
2023-03-24T21:30:50.578Z,7
2023-03-24T21:40:59.704Z,3
2023-03-24T21:51:04.496Z,4
2023-03-24T22:01:11.890Z,2
2023-03-24T22:11:17.362Z,3
2023-03-24T22:21:22.517Z,3
2023-03-24T22:31:29.973Z,3
2023-03-24T22:41:35.805Z,5
2023-03-24T22:51:43.668Z,11
2023-03-24T23:01:59.025Z,11
2023-03-24T23:11:55.267Z,5
2023-03-24T23:22:00.998Z,4
2023-03-24T23:32:07.682Z,5
2023-03-24T23:42:13.223Z,4
2023-03-24T23:52:18.690Z,3
